Time;durP1;ratioP1;P1;durP2;ratioP2;P2;SDS_P1;SDS_P2;PMS_P1;PMS_P2;Temp;Humidity;BMP_temperature;BMP_pressure;BME280_temperature;BME280_humidity;BME280_pressure;Samples;Min_cycle;Max_cycle;Signal;HPM_P1;HPM_P2
2021/03/20 00:00:37;;;;;;;1.80;1.60;;;-1.30;99.90;;;;;;5060393;28;20227;-79
2021/03/20 00:03:04;;;;;;;2.53;2.33;;;-1.20;99.90;;;;;;5060037;28;20662;-79
2021/03/20 00:05:30;;;;;;;3.50;2.47;;;-1.20;99.90;;;;;;5060481;28;20199;-79
2021/03/20 00:07:56;;;;;;;3.80;3.10;;;-1.10;99.90;;;;;;5060593;28;20211;-78
2021/03/20 00:10:24;;;;;;;4.90;2.20;;;-1.10;99.90;;;;;;5059655;28;20285;-80
2021/03/20 00:12:52;;;;;;;3.28;3.03;;;-1.10;99.90;;;;;;5060700;28;20214;-81
2021/03/20 00:15:22;;;;;;;6.32;2.45;;;-0.70;99.90;;;;;;5065564;28;20245;-80
2021/03/20 00:17:49;;;;;;;2.90;1.80;;;-1.00;99.90;;;;;;5075800;28;20207;-80
2021/03/20 00:20:20;;;;;;;2.78;1.77;;;-0.90;99.90;;;;;;5069598;28;20206;-80
2021/03/20 00:22:46;;;;;;;3.78;2.28;;;-1.10;99.90;;;;;;5062130;28;20707;-80
2021/03/20 00:25:12;;;;;;;2.40;2.20;;;-1.00;99.90;;;;;;5060825;28;20195;-81
2021/03/20 00:27:39;;;;;;;2.90;2.70;;;-1.00;99.90;;;;;;5060251;28;20202;-81
2021/03/20 00:30:07;;;;;;;2.55;1.88;;;-1.10;99.90;;;;;;5059672;28;20702;-81
2021/03/20 00:32:33;;;;;;;3.15;2.13;;;-1.10;99.90;;;;;;5058533;28;20207;-82
2021/03/20 00:35:00;;;;;;;3.30;2.10;;;-1.10;99.90;;;;;;5059050;28;20207;-82
2021/03/20 00:37:26;;;;;;;1.98;1.75;;;-1.00;99.90;;;;;;5059577;28;20203;-81
2021/03/20 00:39:52;;;;;;;2.97;2.50;;;-1.00;99.90;;;;;;5059117;28;20206;-81
2021/03/20 00:42:18;;;;;;;3.28;3.08;;;-1.00;99.90;;;;;;5059090;28;20245;-81
2021/03/20 00:44:44;;;;;;;4.63;2.40;;;-1.00;99.90;;;;;;5062647;28;20203;-80
2021/03/20 00:47:11;;;;;;;2.60;2.40;;;-1.10;99.90;;;;;;5060442;28;20206;-81
2021/03/20 00:49:37;;;;;;;4.00;2.38;;;-1.10;99.90;;;;;;5060312;28;20203;-82
2021/03/20 00:52:04;;;;;;;3.25;2.05;;;-1.00;99.90;;;;;;5058952;28;20608;-82
2021/03/20 00:54:30;;;;;;;2.25;1.85;;;-1.10;99.90;;;;;;5058854;28;20238;-81
2021/03/20 00:56:56;;;;;;;3.20;1.92;;;-0.90;99.90;;;;;;5059231;28;20230;-81
2021/03/20 00:59:22;;;;;;;5.95;2.00;;;-1.00;99.90;;;;;;5058919;28;20206;-80
2021/03/20 01:01:48;;;;;;;4.05;2.45;;;-1.00;99.90;;;;;;5059496;28;20231;-81
2021/03/20 01:04:14;;;;;;;2.70;2.10;;;-1.00;99.90;;;;;;5059468;28;20199;-81
2021/03/20 01:06:40;;;;;;;2.78;2.15;;;-1.00;99.90;;;;;;5058653;28;20285;-81
2021/03/20 01:09:07;;;;;;;4.00;2.30;;;-1.10;99.90;;;;;;5059506;28;20203;-83
2021/03/20 01:11:34;;;;;;;2.28;2.08;;;-1.00;99.90;;;;;;5059515;28;20775;-83
2021/03/20 01:14:00;;;;;;;3.97;2.10;;;-1.00;99.90;;;;;;5059671;28;20209;-83
2021/03/20 01:16:28;;;;;;;3.08;2.30;;;-0.90;99.90;;;;;;5060597;28;20253;-83
2021/03/20 01:18:54;;;;;;;2.65;1.92;;;-0.90;99.90;;;;;;5060095;28;20207;-82
2021/03/20 01:21:22;;;;;;;2.97;2.38;;;-0.90;99.90;;;;;;5063167;28;20227;-82
2021/03/20 01:23:48;;;;;;;3.70;2.10;;;-1.00;99.90;;;;;;5072585;28;20302;-83
2021/03/20 01:26:15;;;;;;;4.05;2.63;;;-1.00;99.90;;;;;;5074433;28;20187;-79
2021/03/20 01:28:43;;;;;;;4.30;2.40;;;-1.00;99.90;;;;;;5074822;28;20203;-83
2021/03/20 01:31:12;;;;;;;1.90;1.80;;;-1.00;99.90;;;;;;5073566;28;20724;-82
2021/03/20 01:33:38;;;;;;;2.67;1.98;;;-0.90;99.90;;;;;;5065313;28;20229;-83
2021/03/20 01:36:07;;;;;;;3.75;2.00;;;-0.90;99.90;;;;;;5066165;28;20241;-83
2021/03/20 01:38:33;;;;;;;5.22;2.42;;;-0.90;99.90;;;;;;5066327;28;20199;-82
2021/03/20 01:41:02;;;;;;;3.67;1.80;;;-1.00;99.90;;;;;;5063307;28;20288;-83
2021/03/20 01:43:31;;;;;;;2.95;1.95;;;-1.00;99.90;;;;;;5062591;28;20214;-81
2021/03/20 01:46:30;;;;;;;3.78;2.20;;;-0.90;99.90;;;;;;5061989;28;20708;-81
2021/03/20 01:48:56;;;;;;;2.05;1.85;;;-0.90;99.90;;;;;;5061773;28;20268;-81
2021/03/20 01:51:22;;;;;;;3.22;2.35;;;-0.80;99.90;;;;;;5063146;28;20234;-80
2021/03/20 01:53:53;;;;;;;4.90;1.48;;;-0.70;99.90;;;;;;5069227;28;20207;-78
2021/03/20 01:56:23;;;;;;;8.93;2.58;;;-0.80;99.90;;;;;;5071515;28;20218;-80
2021/03/20 01:58:52;;;;;;;5.20;2.45;;;-0.80;99.90;;;;;;5072045;28;20257;-81
2021/03/20 02:01:20;;;;;;;4.80;1.92;;;-0.90;99.90;;;;;;5064047;28;20227;-81
2021/03/20 02:03:47;;;;;;;5.53;3.50;;;-0.90;99.90;;;;;;5060254;28;20206;-81
2021/03/20 02:06:13;;;;;;;3.22;2.00;;;-0.90;99.90;;;;;;5061018;28;20244;-82
2021/03/20 02:08:41;;;;;;;3.03;1.92;;;-0.80;99.90;;;;;;5073142;28;20245;-80
2021/03/20 02:11:17;;;;;;;4.65;2.30;;;-0.60;99.90;;;;;;5074614;28;20238;-80
2021/03/20 02:13:46;;;;;;;5.65;1.83;;;-0.80;99.90;;;;;;5075873;28;20183;-81
2021/03/20 02:16:18;;;;;;;3.08;2.17;;;-0.90;99.90;;;;;;5074206;28;20225;-81
2021/03/20 02:18:47;;;;;;;2.25;1.80;;;-0.80;99.90;;;;;;5061693;28;20213;-80
2021/03/20 02:21:23;;;;;;;3.58;2.13;;;-0.70;99.90;;;;;;5059926;28;20223;-81
2021/03/20 02:24:34;;;;;;;2.30;2.10;;;-0.70;99.90;;;;;;5059706;28;20190;-81
2021/03/20 02:27:38;;;;;;;2.35;1.67;;;-0.70;99.90;;;;;;5058585;28;20179;-81
2021/03/20 02:30:28;;;;;;;5.88;1.77;;;-0.70;99.90;;;;;;5063213;28;20205;-81
2021/03/20 02:33:33;;;;;;;2.30;1.73;;;-0.80;99.90;;;;;;5059588;28;20194;-80
2021/03/20 02:36:09;;;;;;;2.00;1.55;;;-0.90;99.90;;;;;;4979406;28;20209;-81
2021/03/20 02:38:44;;;;;;;3.65;2.20;;;-0.80;99.90;;;;;;5049035;28;20677;-81
2021/03/20 02:41:21;;;;;;;2.42;2.22;;;-0.60;99.90;;;;;;5058353;28;20222;-81
2021/03/20 02:43:55;;;;;;;2.28;1.85;;;-0.50;99.90;;;;;;5058158;28;20222;-80
2021/03/20 02:46:25;;;;;;;2.45;2.15;;;-0.60;99.90;;;;;;5059284;28;20630;-81
2021/03/20 02:48:58;;;;;;;2.05;1.83;;;-0.60;99.90;;;;;;5060931;28;20191;-80
2021/03/20 02:51:30;;;;;;;1.90;1.80;;;-0.70;99.90;;;;;;5082008;22;20356;-84
2021/03/20 02:54:02;;;;;;;4.13;1.95;;;-0.90;99.90;;;;;;5068509;28;20199;-84
2021/03/20 02:56:35;;;;;;;4.90;2.10;;;-0.70;99.90;;;;;;5069140;28;20211;-84
2021/03/20 02:59:06;;;;;;;2.55;1.58;;;-0.60;99.90;;;;;;5069566;28;20195;-84
2021/03/20 03:01:35;;;;;;;2.50;1.90;;;-0.60;99.90;;;;;;5072558;28;20237;-83
2021/03/20 03:04:04;;;;;;;3.20;1.95;;;-0.70;99.90;;;;;;5066358;28;20207;-81
2021/03/20 03:06:35;;;;;;;3.13;2.88;;;-0.90;99.90;;;;;;5063293;28;20233;-82
2021/03/20 03:09:08;;;;;;;3.25;1.80;;;-0.70;99.90;;;;;;5065101;28;20211;-83
2021/03/20 03:11:39;;;;;;;1.95;1.60;;;-0.70;99.90;;;;;;5066566;28;20227;-83
2021/03/20 03:14:08;;;;;;;2.97;1.92;;;-0.90;99.90;;;;;;5071720;28;20210;-83
2021/03/20 03:16:38;;;;;;;4.35;2.55;;;-0.50;99.90;;;;;;5073822;28;20219;-83
2021/03/20 03:19:10;;;;;;;3.30;2.35;;;-0.70;99.90;;;;;;5074236;28;20203;-83
2021/03/20 03:21:41;;;;;;;2.42;2.25;;;-0.70;99.90;;;;;;5074186;28;20220;-83
2021/03/20 03:24:11;;;;;;;2.85;2.30;;;-0.70;99.90;;;;;;5073907;28;20187;-83
2021/03/20 03:26:40;;;;;;;3.40;2.00;;;-0.50;99.90;;;;;;5074416;28;20198;-83
2021/03/20 03:29:17;;;;;;;6.55;2.03;;;-0.60;99.90;;;;;;5075133;28;20215;-83
2021/03/20 03:31:48;;;;;;;2.67;1.75;;;-0.60;99.90;;;;;;5075127;28;20248;-84
2021/03/20 03:34:20;;;;;;;1.85;1.75;;;-0.60;99.90;;;;;;5075127;28;20680;-84
2021/03/20 03:36:55;;;;;;;3.97;2.15;;;-0.50;99.90;;;;;;5075918;28;20282;-84
2021/03/20 03:39:26;;;;;;;1.83;1.73;;;-0.50;99.90;;;;;;5075160;28;20253;-84
2021/03/20 03:41:52;;;;;;;3.10;1.50;;;-0.50;99.90;;;;;;5077974;28;20259;-84
2021/03/20 03:44:18;;;;;;;2.88;1.55;;;-0.30;99.90;;;;;;5073893;28;20237;-84
2021/03/20 03:46:47;;;;;;;1.65;1.55;;;-0.50;99.90;;;;;;5071716;28;20740;-84
2021/03/20 03:49:17;;;;;;;2.05;1.85;;;-0.50;99.90;;;;;;5072475;28;20669;-83
2021/03/20 03:51:43;;;;;;;3.28;1.60;;;-0.60;99.90;;;;;;5070905;28;20231;-83
2021/03/20 03:54:10;;;;;;;2.65;2.17;;;-0.50;99.90;;;;;;5068176;28;20218;-85
2021/03/20 03:57:00;;;;;;;5.68;1.80;;;-0.50;99.90;;;;;;5067198;28;20226;-86
2021/03/20 03:59:38;;;;;;;3.88;1.90;;;-0.60;99.90;;;;;;5074344;28;20202;-86
2021/03/20 04:02:16;;;;;;;4.25;2.33;;;-0.70;99.90;;;;;;5066222;28;20223;-87
2021/03/20 04:04:59;;;;;;;2.65;2.45;;;-0.60;99.90;;;;;;5067720;28;20280;-86
2021/03/20 04:07:40;;;;;;;6.93;1.90;;;-0.70;99.90;;;;;;5066767;28;20183;-86
2021/03/20 04:10:15;;;;;;;2.15;1.70;;;-0.50;99.90;;;;;;5061869;28;20260;-86
2021/03/20 04:12:50;;;;;;;1.80;1.70;;;-0.60;99.90;;;;;;5060520;28;20234;-85
2021/03/20 04:15:27;;;;;;;3.60;2.17;;;-0.50;99.90;;;;;;5059837;28;20195;-85
2021/03/20 04:18:02;;;;;;;4.38;2.25;;;-0.30;99.90;;;;;;5059163;28;20634;-85
2021/03/20 04:20:36;;;;;;;2.70;1.85;;;-0.60;99.90;;;;;;5057369;28;20462;-85
2021/03/20 04:23:06;;;;;;;3.67;2.00;;;-0.60;99.90;;;;;;5058334;28;20228;-85
2021/03/20 04:25:44;;;;;;;5.22;2.60;;;-0.60;99.90;;;;;;5059006;28;20594;-85
2021/03/20 04:28:22;;;;;;;2.63;2.38;;;-0.50;99.90;;;;;;5058452;28;20195;-85
2021/03/20 04:30:51;;;;;;;2.85;2.35;;;-0.60;99.90;;;;;;5058259;28;20632;-83
2021/03/20 04:33:21;;;;;;;3.78;2.60;;;-0.60;99.90;;;;;;5058496;28;20238;-85
2021/03/20 04:35:55;;;;;;;3.45;2.50;;;-0.60;99.90;;;;;;5058870;28;20218;-85
2021/03/20 04:38:23;;;;;;;3.08;2.30;;;-0.60;99.90;;;;;;5060087;28;20195;-85
2021/03/20 04:40:54;;;;;;;2.38;2.17;;;-0.60;99.90;;;;;;5059789;28;20203;-84
2021/03/20 04:43:23;;;;;;;2.78;2.50;;;-0.70;99.90;;;;;;5062079;28;20227;-84
2021/03/20 04:45:53;;;;;;;4.53;1.90;;;-0.70;99.90;;;;;;5062522;28;20203;-84
2021/03/20 04:48:24;;;;;;;2.88;2.20;;;-0.40;99.90;;;;;;5060878;28;20443;-84
2021/03/20 04:50:55;;;;;;;2.55;2.35;;;-0.60;99.90;;;;;;5059550;28;20282;-84
2021/03/20 04:53:22;;;;;;;6.88;2.30;;;-0.60;99.90;;;;;;5059672;28;20315;-85
2021/03/20 04:55:51;;;;;;;3.45;2.20;;;-0.30;99.90;;;;;;5059356;28;20230;-85
2021/03/20 04:58:25;;;;;;;2.47;2.10;;;-0.60;99.90;;;;;;5060081;28;20576;-84
2021/03/20 05:00:57;;;;;;;2.55;2.35;;;-0.50;99.90;;;;;;5059446;28;20202;-85
2021/03/20 05:03:28;;;;;;;6.03;2.42;;;-0.50;99.90;;;;;;5058689;28;20623;-86
2021/03/20 05:05:59;;;;;;;6.35;4.50;;;-0.50;99.90;;;;;;5059416;28;20195;-86
2021/03/20 05:08:33;;;;;;;8.13;2.28;;;0.10;99.90;;;;;;5058171;28;20545;-86
2021/03/20 05:11:10;;;;;;;8.27;2.58;;;-0.60;99.90;;;;;;5059607;28;20657;-85
2021/03/20 05:13:41;;;;;;;4.25;2.10;;;-0.40;99.90;;;;;;5060210;28;20660;-85
2021/03/20 05:16:27;;;;;;;3.53;2.75;;;-0.50;99.90;;;;;;5058373;28;20717;-85
2021/03/20 05:18:54;;;;;;;2.53;2.28;;;-0.50;99.90;;;;;;5058013;28;20622;-85
2021/03/20 05:21:24;;;;;;;2.75;1.90;;;-0.60;99.90;;;;;;5060230;28;20203;-86
2021/03/20 05:23:50;;;;;;;2.90;2.20;;;-0.40;99.90;;;;;;5063091;28;20207;-85
2021/03/20 05:26:16;;;;;;;2.30;2.20;;;-0.30;99.90;;;;;;5066538;28;20206;-84
2021/03/20 05:28:42;;;;;;;3.65;1.90;;;-0.50;99.90;;;;;;5067154;28;20440;-84
2021/03/20 05:31:09;;;;;;;2.38;2.13;;;-0.50;99.90;;;;;;5066992;28;20221;-85
2021/03/20 05:33:39;;;;;;;2.60;2.40;;;-0.50;99.90;;;;;;5066831;28;20233;-84
2021/03/20 05:36:06;;;;;;;3.58;2.58;;;-0.30;99.90;;;;;;5064856;28;20207;-84
2021/03/20 05:38:33;;;;;;;4.28;2.67;;;0.00;99.90;;;;;;5065263;28;20210;-84
2021/03/20 05:41:03;;;;;;;2.97;2.40;;;-0.20;99.90;;;;;;5065555;28;20203;-85
2021/03/20 05:43:44;;;;;;;4.50;2.15;;;-0.20;99.90;;;;;;5060894;28;20229;-85
2021/03/20 05:46:24;;;;;;;8.25;2.42;;;-0.10;99.90;;;;;;5061222;28;20301;-84
2021/03/20 05:49:12;;;;;;;2.25;2.15;;;-0.10;99.90;;;;;;5062099;28;20205;-85
2021/03/20 05:52:06;;;;;;;2.30;2.08;;;0.00;99.90;;;;;;5061525;28;20284;-85
2021/03/20 05:55:06;;;;;;;3.53;1.90;;;-0.30;99.90;;;;;;5061990;28;20257;-85
2021/03/20 05:57:38;;;;;;;3.85;1.92;;;-0.30;99.90;;;;;;5061783;28;20291;-85
2021/03/20 06:00:16;;;;;;;5.93;2.22;;;0.00;99.90;;;;;;5063121;28;20191;-85
2021/03/20 06:03:17;;;;;;;2.92;2.20;;;-0.10;99.90;;;;;;5072437;28;20227;-85
2021/03/20 06:05:50;;;;;;;2.03;1.83;;;0.20;99.90;;;;;;5069506;28;20194;-84
2021/03/20 06:08:33;;;;;;;1.90;1.80;;;0.10;99.90;;;;;;5063059;28;20195;-85
2021/03/20 06:11:06;;;;;;;1.60;1.50;;;0.10;99.90;;;;;;5070500;28;20213;-84
2021/03/20 06:13:55;;;;;;;3.58;2.38;;;0.00;99.90;;;;;;5070272;28;20227;-85
2021/03/20 06:16:27;;;;;;;2.65;2.45;;;0.20;99.90;;;;;;5052791;28;20760;-85
2021/03/20 06:19:22;;;;;;;2.30;2.10;;;0.30;99.90;;;;;;5076053;28;20183;-86
2021/03/20 06:22:21;;;;;;;4.68;2.03;;;0.50;99.90;;;;;;5071101;28;20767;-86
2021/03/20 06:25:11;;;;;;;4.88;2.13;;;0.30;99.90;;;;;;5060524;28;20199;-86
2021/03/20 06:27:45;;;;;;;2.40;1.77;;;0.30;99.90;;;;;;5059703;28;20646;-85
2021/03/20 06:30:28;;;;;;;4.03;1.90;;;0.20;99.90;;;;;;5063372;28;20187;-86
2021/03/20 06:33:00;;;;;;;2.15;1.85;;;0.30;99.90;;;;;;5064243;28;20273;-85
2021/03/20 06:35:37;;;;;;;4.28;1.95;;;0.20;99.90;;;;;;5072293;28;20443;-85
2021/03/20 06:38:06;;;;;;;2.00;1.80;;;0.20;99.90;;;;;;5065298;28;20203;-85
2021/03/20 06:40:45;;;;;;;2.05;1.88;;;0.30;99.90;;;;;;5063733;28;20203;-85
2021/03/20 06:43:14;;;;;;;2.03;1.83;;;0.60;99.90;;;;;;5064213;28;20223;-85
2021/03/20 06:45:40;;;;;;;2.40;2.30;;;0.50;99.90;;;;;;5064271;28;20214;-85
2021/03/20 06:48:12;;;;;;;2.83;2.42;;;0.70;99.90;;;;;;5065900;28;20207;-85
2021/03/20 06:50:42;;;;;;;7.28;3.08;;;0.30;99.90;;;;;;5080014;28;20180;-85
2021/03/20 06:53:11;;;;;;;2.60;2.40;;;0.40;99.90;;;;;;5079502;28;20254;-85
2021/03/20 06:55:43;;;;;;;4.20;2.50;;;0.50;99.90;;;;;;5078343;28;20207;-85
2021/03/20 06:58:17;;;;;;;3.88;2.40;;;0.40;99.90;;;;;;5078082;28;20656;-85
2021/03/20 07:00:44;;;;;;;4.95;2.10;;;;;;;;;;5077561;28;20465;-85
2021/03/20 07:03:48;;;;;;;5.13;2.20;;;0.30;99.90;;;;;;5076557;28;20435;-86
2021/03/20 07:06:20;;;;;;;5.20;2.85;;;0.30;99.90;;;;;;5074616;28;20456;-85
2021/03/20 07:08:51;;;;;;;3.92;2.72;;;0.70;99.90;;;;;;5074072;28;20206;-85
2021/03/20 07:11:26;;;;;;;5.18;3.15;;;0.50;99.90;;;;;;5079537;28;20412;-85
2021/03/20 07:13:56;;;;;;;6.90;3.30;;;0.10;99.90;;;;;;5077501;28;20439;-84
2021/03/20 07:16:24;;;;;;;3.15;2.50;;;0.60;99.90;;;;;;5071804;28;20215;-85
2021/03/20 07:18:52;;;;;;;4.30;1.90;;;0.90;99.90;;;;;;5069788;28;20459;-84
2021/03/20 07:21:31;;;;;;;4.93;2.30;;;0.70;99.90;;;;;;5074059;28;20442;-85
2021/03/20 07:24:03;;;;;;;5.55;2.70;;;1.10;99.90;;;;;;5077103;28;20440;-85
2021/03/20 07:26:32;;;;;;;6.47;2.90;;;0.90;99.90;;;;;;5070126;28;20447;-85
2021/03/20 07:29:01;;;;;;;2.50;2.30;;;0.80;99.90;;;;;;5066367;28;20454;-85
2021/03/20 07:31:29;;;;;;;5.20;2.40;;;;;;;;;;5074311;28;20426;-87
2021/03/20 07:34:12;;;;;;;4.18;2.20;;;1.00;99.90;;;;;;5078667;28;20483;-85
2021/03/20 07:36:43;;;;;;;2.60;2.40;;;0.90;99.90;;;;;;5079495;28;20210;-85
2021/03/20 07:39:18;;;;;;;4.97;2.03;;;1.10;99.90;;;;;;5078455;28;20507;-86
2021/03/20 07:41:56;;;;;;;6.80;2.85;;;1.00;99.90;;;;;;5079306;28;20227;-86
2021/03/20 07:44:25;;;;;;;2.20;1.60;;;1.30;99.90;;;;;;5078758;28;20443;-86
2021/03/20 07:46:51;;;;;;;4.18;2.33;;;1.10;99.90;;;;;;5078989;28;20501;-86
2021/03/20 07:49:27;;;;;;;4.57;2.55;;;1.50;99.90;;;;;;5079248;28;20187;-85
2021/03/20 07:51:59;;;;;;;4.32;1.63;;;1.50;99.90;;;;;;5077155;28;20431;-85
2021/03/20 07:54:37;;;;;;;2.00;1.90;;;1.50;99.90;;;;;;5075731;28;20215;-85
2021/03/20 07:57:09;;;;;;;2.45;2.10;;;1.30;99.90;;;;;;5078678;28;20211;-85
2021/03/20 07:59:44;;;;;;;1.70;1.40;;;1.40;99.90;;;;;;5079217;28;20187;-86
2021/03/20 08:02:27;;;;;;;1.40;1.30;;;1.10;99.90;;;;;;5076702;28;20226;-85
2021/03/20 08:04:57;;;;;;;5.65;2.20;;;1.20;99.90;;;;;;5077065;28;20191;-85
2021/03/20 08:07:29;;;;;;;2.08;1.90;;;1.40;99.90;;;;;;5078181;28;20189;-84
2021/03/20 08:10:16;;;;;;;3.78;2.40;;;1.30;99.90;;;;;;5076914;28;20206;-85
2021/03/20 08:13:01;;;;;;;1.85;1.70;;;1.10;99.90;;;;;;5077118;28;20227;-85
2021/03/20 08:15:33;;;;;;;3.22;2.35;;;1.40;99.90;;;;;;5068010;28;20226;-84
2021/03/20 08:18:05;;;;;;;3.95;2.30;;;1.20;99.90;;;;;;5063380;28;20192;-85
2021/03/20 08:20:31;;;;;;;3.30;2.00;;;1.30;99.90;;;;;;5059812;28;20443;-85
2021/03/20 08:23:15;;;;;;;4.93;3.10;;;1.50;99.90;;;;;;5058768;28;20588;-85
2021/03/20 08:25:57;;;;;;;2.45;2.03;;;1.70;99.90;;;;;;5058146;28;20191;-85
2021/03/20 08:28:36;;;;;;;2.70;1.95;;;1.80;99.90;;;;;;5058762;28;20522;-85
2021/03/20 08:31:10;;;;;;;1.23;1.20;;;1.90;99.90;;;;;;5058425;28;20234;-85
2021/03/20 08:34:05;;;;;;;2.03;1.85;;;1.80;99.90;;;;;;5060510;28;20693;-85
2021/03/20 08:36:45;;;;;;;2.35;2.25;;;1.90;99.90;;;;;;5060661;28;20207;-85
2021/03/20 08:39:45;;;;;;;2.70;1.55;;;2.00;99.90;;;;;;5059183;28;20784;-85
2021/03/20 08:42:28;;;;;;;1.92;1.70;;;2.10;99.90;;;;;;5059831;28;20246;-85
2021/03/20 08:45:07;;;;;;;1.85;1.70;;;2.30;99.90;;;;;;5058621;28;20187;-85
2021/03/20 08:48:06;;;;;;;2.92;1.90;;;1.70;99.90;;;;;;5060003;28;20191;-85
2021/03/20 08:50:42;;;;;;;2.00;1.70;;;1.90;99.90;;;;;;5058724;28;20225;-84
2021/03/20 08:53:15;;;;;;;3.58;2.13;;;2.20;99.90;;;;;;5048723;23;20227;-85
2021/03/20 08:56:09;;;;;;;2.67;1.60;;;2.30;99.90;;;;;;5039124;28;20267;-84
2021/03/20 08:58:50;;;;;;;1.60;1.50;;;2.20;99.90;;;;;;5039323;28;20565;-85
2021/03/20 09:01:27;;;;;;;1.98;1.75;;;2.50;99.90;;;;;;5038759;28;20233;-85
2021/03/20 09:06:31;;;;;;;3.10;2.60;;;2.20;99.90;;;;;;5043368;28;20228;-80
2021/03/20 09:09:01;;;;;;;2.55;2.15;;;2.10;99.90;;;;;;5047874;28;20196;-81
2021/03/20 09:11:40;;;;;;;1.80;1.65;;;2.40;99.90;;;;;;5050802;28;20251;-80
2021/03/20 09:14:15;;;;;;;3.35;3.05;;;2.60;99.90;;;;;;5045675;28;20712;-82
2021/03/20 09:16:47;;;;;;;4.90;3.00;;;2.50;99.90;;;;;;5041040;28;20700;-79
2021/03/20 09:19:19;;;;;;;3.30;3.05;;;2.80;99.90;;;;;;5040536;28;20557;-79
2021/03/20 09:21:47;;;;;;;5.78;2.28;;;2.80;99.90;;;;;;5040790;28;20191;-80
2021/03/20 09:24:19;;;;;;;1.92;1.52;;;3.10;99.90;;;;;;5040804;28;20296;-78
2021/03/20 09:26:47;;;;;;;5.22;1.98;;;3.00;99.90;;;;;;5040650;28;20703;-79
2021/03/20 09:29:18;;;;;;;2.42;2.22;;;2.80;99.90;;;;;;5042195;28;20234;-81
2021/03/20 09:32:10;;;;;;;3.55;3.25;;;2.80;99.90;;;;;;5047108;28;20196;-80
2021/03/20 09:34:48;;;;;;;3.30;2.20;;;3.00;99.90;;;;;;5045213;28;20287;-80
2021/03/20 09:37:57;;;;;;;2.20;2.00;;;2.70;99.90;;;;;;5044991;28;20226;-79
2021/03/20 09:40:49;;;;;;;2.42;2.22;;;2.70;99.90;;;;;;5042763;28;20191;-81
2021/03/20 09:43:41;;;;;;;4.80;2.35;;;2.80;99.90;;;;;;5042641;28;20575;-80
2021/03/20 09:46:27;;;;;;;2.00;1.80;;;3.10;99.90;;;;;;5038897;28;20223;-79
2021/03/20 09:48:54;;;;;;;4.30;2.85;;;3.20;99.90;;;;;;5042300;28;20285;-80
2021/03/20 09:51:45;;;;;;;5.20;3.30;;;3.20;99.90;;;;;;5042410;28;20199;-79
2021/03/20 09:54:45;;;;;;;4.10;1.80;;;3.20;99.90;;;;;;5046142;28;20702;-78
2021/03/20 09:57:51;;;;;;;1.67;1.58;;;3.20;99.90;;;;;;4985399;28;20210;-79
2021/03/20 10:01:00;;;;;;;3.53;2.50;;;3.10;99.90;;;;;;5045763;28;20206;-80
2021/03/20 10:04:01;;;;;;;2.95;2.22;;;3.20;99.90;;;;;;4980037;28;20210;-80
2021/03/20 10:06:34;;;;;;;2.13;1.60;;;3.30;99.90;;;;;;5041904;28;20219;-81
2021/03/20 10:09:23;;;;;;;2.45;1.90;;;3.20;99.90;;;;;;5043010;28;20221;-82
2021/03/20 10:12:17;;;;;;;3.60;2.03;;;3.30;99.90;;;;;;5044767;28;20246;-79
2021/03/20 10:15:15;;;;;;;2.55;2.10;;;3.40;99.90;;;;;;5046337;28;20224;-80
2021/03/20 10:18:20;;;;;;;2.17;1.63;;;3.80;99.90;;;;;;5045705;28;20218;-82
2021/03/20 10:20:57;;;;;;;2.28;2.05;;;3.80;99.90;;;;;;4983628;28;20205;-80
2021/03/20 10:23:34;;;;;;;2.85;1.70;;;3.50;99.90;;;;;;5035345;28;20670;-80
2021/03/20 10:26:04;;;;;;;1.90;1.80;;;3.50;99.90;;;;;;5039869;28;20251;-80
2021/03/20 10:28:41;;;;;;;1.70;1.60;;;3.40;99.90;;;;;;5039973;28;20219;-80
2021/03/20 10:31:10;;;;;;;1.70;1.60;;;3.30;99.90;;;;;;5039701;28;20650;-79
2021/03/20 10:33:39;;;;;;;2.78;1.65;;;3.50;99.90;;;;;;5040161;28;20211;-81
2021/03/20 10:36:19;;;;;;;2.22;2.03;;;3.50;99.90;;;;;;5039972;28;20223;-81
2021/03/20 10:38:47;;;;;;;4.90;2.83;;;3.50;99.90;;;;;;5038734;28;20559;-79
2021/03/20 10:41:20;;;;;;;1.75;1.65;;;3.30;99.90;;;;;;5039817;28;20635;-81
2021/03/20 10:43:49;;;;;;;2.58;2.38;;;3.20;99.90;;;;;;5039614;28;20195;-80
2021/03/20 10:46:22;;;;;;;4.60;2.10;;;3.30;99.90;;;;;;5039180;28;20199;-80
2021/03/20 10:48:50;;;;;;;4.05;1.98;;;3.40;99.90;;;;;;5039106;28;20212;-79
2021/03/20 10:51:17;;;;;;;3.42;1.90;;;3.30;99.90;;;;;;5039271;28;20246;-80
2021/03/20 10:53:46;;;;;;;3.08;1.80;;;3.50;99.90;;;;;;5040389;28;20572;-80
2021/03/20 10:56:34;;;;;;;2.28;2.08;;;3.20;99.90;;;;;;5044882;28;20231;-80
2021/03/20 10:59:11;;;;;;;4.53;2.25;;;3.50;99.90;;;;;;5045929;28;20207;-80
2021/03/20 11:01:38;;;;;;;5.45;2.05;;;3.70;99.90;;;;;;5051547;28;20255;-80
2021/03/20 11:04:05;;;;;;;5.55;1.90;;;4.00;99.90;;;;;;5045463;28;20230;-81
2021/03/20 11:06:32;;;;;;;4.32;2.30;;;4.20;99.90;;;;;;5062824;28;20627;-79
2021/03/20 11:09:09;;;;;;;2.90;1.63;;;3.90;99.90;;;;;;5061418;28;20199;-80
2021/03/20 11:11:37;;;;;;;5.32;2.28;;;3.90;99.90;;;;;;5065596;28;20289;-80
2021/03/20 11:14:15;;;;;;;3.20;2.47;;;3.70;99.90;;;;;;5062774;28;20210;-81
2021/03/20 11:16:47;;;;;;;2.20;2.00;;;3.60;99.90;;;;;;5062333;28;20279;-81
2021/03/20 11:19:24;;;;;;;2.38;1.95;;;3.50;99.90;;;;;;5063780;28;20194;-80
2021/03/20 11:21:57;;;;;;;1.80;1.70;;;3.50;99.90;;;;;;5062958;28;20665;-80
2021/03/20 11:24:26;;;;;;;2.67;2.00;;;3.60;99.90;;;;;;5068980;28;20223;-81
2021/03/20 11:26:53;;;;;;;4.30;2.17;;;3.70;99.90;;;;;;5076818;28;20260;-81
2021/03/20 11:29:22;;;;;;;1.50;1.40;;;4.10;99.90;;;;;;5076404;28;20211;-82
2021/03/20 11:31:52;;;;;;;4.95;2.13;;;3.90;99.90;;;;;;5077706;28;20207;-81
2021/03/20 11:34:25;;;;;;;1.67;1.58;;;4.30;99.90;;;;;;5079222;28;20226;-79
2021/03/20 11:36:53;;;;;;;2.88;1.67;;;4.30;99.90;;;;;;5079922;28;20211;-80
2021/03/20 11:39:20;;;;;;;3.97;1.67;;;4.10;99.90;;;;;;5079383;28;20203;-82
2021/03/20 11:41:54;;;;;;;1.98;1.85;;;4.10;99.90;;;;;;5078809;28;20222;-81
2021/03/20 11:44:25;;;;;;;1.85;1.75;;;4.20;99.90;;;;;;5079466;28;20223;-81
2021/03/20 11:46:56;;;;;;;1.83;1.73;;;4.10;99.90;;;;;;5080404;28;20187;-81
2021/03/20 11:49:34;;;;;;;3.35;1.83;;;3.90;99.90;;;;;;5065233;28;20218;-80
2021/03/20 11:52:00;;;;;;;2.28;1.98;;;4.10;99.80;;;;;;5071348;28;20249;-79
2021/03/20 11:54:30;;;;;;;4.43;2.22;;;4.40;99.10;;;;;;5073942;28;20227;-78
2021/03/20 11:57:00;;;;;;;3.95;2.13;;;4.10;97.80;;;;;;5073274;28;20222;-79
2021/03/20 11:59:37;;;;;;;2.28;2.05;;;4.20;97.40;;;;;;5074250;28;20225;-79
2021/03/20 12:02:06;;;;;;;4.10;2.25;;;4.40;99.20;;;;;;5075893;28;20266;-77
2021/03/20 12:04:34;;;;;;;2.72;2.53;;;3.90;96.30;;;;;;5076781;28;20249;-78
2021/03/20 12:07:24;;;;;;;6.07;2.90;;;4.00;97.40;;;;;;5076778;28;20209;-78
2021/03/20 12:09:52;;;;;;;2.22;2.03;;;4.20;99.80;;;;;;5077677;28;20187;-78
2021/03/20 12:12:19;;;;;;;5.38;2.90;;;4.30;98.40;;;;;;5078426;28;20198;-80
2021/03/20 12:14:46;;;;;;;2.00;1.80;;;4.00;95.80;;;;;;5067369;28;20230;-80
2021/03/20 12:17:17;;;;;;;4.95;2.22;;;4.10;96.10;;;;;;5062788;28;20223;-80
2021/03/20 12:19:54;;;;;;;2.97;2.35;;;4.20;95.60;;;;;;5062677;28;20190;-80
2021/03/20 12:22:39;;;;;;;2.85;2.10;;;4.30;95.80;;;;;;5062594;28;20187;-80
2021/03/20 12:25:20;;;;;;;2.20;1.90;;;4.50;96.30;;;;;;5065066;28;20234;-80
2021/03/20 12:27:47;;;;;;;2.60;1.50;;;4.70;96.20;;;;;;5064912;28;20195;-80
2021/03/20 12:30:27;;;;;;;1.85;1.75;;;4.80;95.40;;;;;;5075257;28;20226;-82
2021/03/20 12:32:55;;;;;;;1.52;1.40;;;5.00;99.90;;;;;;5068565;28;20191;-80
2021/03/20 12:35:33;;;;;;;2.55;1.80;;;4.80;94.60;;;;;;5073725;28;20223;-80
2021/03/20 12:38:15;;;;;;;2.38;1.50;;;4.70;95.20;;;;;;5075474;28;20298;-82
2021/03/20 12:40:47;;;;;;;2.15;1.73;;;4.70;99.90;;;;;;5073832;28;20195;-79
2021/03/20 12:43:30;;;;;;;3.30;2.10;;;4.90;95.90;;;;;;5075437;28;20218;-80
2021/03/20 12:45:58;;;;;;;3.45;2.15;;;4.60;95.00;;;;;;5070875;28;20233;-80
2021/03/20 12:48:26;;;;;;;2.55;2.05;;;4.50;94.80;;;;;;5073132;28;20270;-80
2021/03/20 12:51:00;;;;;;;3.47;2.20;;;4.30;99.90;;;;;;5072129;28;20203;-79
2021/03/20 12:53:27;;;;;;;4.45;2.55;;;4.40;95.20;;;;;;5072477;28;20187;-81
2021/03/20 12:55:53;;;;;;;4.03;2.15;;;4.50;95.70;;;;;;5072925;28;20227;-78
2021/03/20 12:58:19;;;;;;;2.60;1.90;;;4.70;95.20;;;;;;5072992;28;20214;-80
2021/03/20 13:00:46;;;;;;;3.38;2.08;;;4.90;99.40;;;;;;5073078;28;20284;-79
2021/03/20 13:03:12;;;;;;;2.25;1.83;;;4.90;94.20;;;;;;5073461;28;20225;-80
2021/03/20 13:05:42;;;;;;;3.33;2.53;;;5.00;94.60;;;;;;5073811;28;20257;-79
2021/03/20 13:08:09;;;;;;;3.38;2.00;;;5.00;95.30;;;;;;5074949;28;20198;-80
2021/03/20 13:10:35;;;;;;;4.00;2.78;;;4.90;94.60;;;;;;5075481;28;20196;-79
2021/03/20 13:13:01;;;;;;;2.42;2.10;;;4.80;95.40;;;;;;5074700;28;20225;-80
2021/03/20 13:15:28;;;;;;;2.30;1.90;;;4.70;94.20;;;;;;5075263;28;20226;-79
2021/03/20 13:17:54;;;;;;;2.40;2.20;;;4.50;96.60;;;;;;5074863;28;20207;-83
2021/03/20 13:20:22;;;;;;;3.78;1.92;;;4.50;95.30;;;;;;5075381;28;20207;-81
2021/03/20 13:22:49;;;;;;;2.88;2.53;;;4.40;95.10;;;;;;5071885;28;20210;-81
2021/03/20 13:25:22;;;;;;;2.15;1.50;;;4.40;96.00;;;;;;5066282;28;20234;-82
2021/03/20 13:27:48;;;;;;;3.88;2.47;;;4.10;99.90;;;;;;5066033;28;20187;-83
2021/03/20 13:30:15;;;;;;;2.63;2.38;;;4.40;97.20;;;;;;5070506;28;20214;-82